createdAt,value
2017-05-29T00:01:38.726Z,95.10
2017-05-29T00:04:07.795Z,95.20
2017-05-29T00:06:36.875Z,95.20
2017-05-29T00:09:05.946Z,95.20
2017-05-29T00:11:35.010Z,95.40
2017-05-29T00:14:04.081Z,95.40
2017-05-29T00:16:33.153Z,95.50
2017-05-29T00:19:02.218Z,95.60
2017-05-29T00:21:31.356Z,95.40
2017-05-29T00:24:00.418Z,95.30
2017-05-29T00:26:29.478Z,95.30
2017-05-29T00:28:58.566Z,95.20
2017-05-29T00:31:27.622Z,95.20
2017-05-29T00:33:56.676Z,95.20
2017-05-29T00:36:25.752Z,94.90
2017-05-29T00:38:54.826Z,94.80
2017-05-29T00:41:23.887Z,94.70
2017-05-29T00:43:52.966Z,94.80
2017-05-29T00:46:22.040Z,95.00
2017-05-29T00:48:51.093Z,95.10
2017-05-29T00:51:20.159Z,95.20
2017-05-29T00:53:49.210Z,95.30
2017-05-29T00:56:18.283Z,95.10
2017-05-29T00:58:47.408Z,95.10
2017-05-29T01:01:16.461Z,95.00
2017-05-29T01:03:45.502Z,95.10
2017-05-29T01:06:14.605Z,95.00
2017-05-29T01:08:43.661Z,95.10
2017-05-29T01:11:12.722Z,95.20
2017-05-29T01:13:41.831Z,95.10
2017-05-29T01:16:10.913Z,94.90
2017-05-29T01:18:39.996Z,94.90
2017-05-29T01:21:09.071Z,94.90
2017-05-29T01:23:38.126Z,94.90
2017-05-29T01:26:07.182Z,94.80
2017-05-29T01:28:36.287Z,94.80
2017-05-29T01:31:05.351Z,94.70
2017-05-29T01:33:34.397Z,94.50
2017-05-29T01:36:03.474Z,94.50
2017-05-29T01:38:32.547Z,94.30
2017-05-29T01:41:01.602Z,94.30
2017-05-29T01:43:30.689Z,94.30
2017-05-29T01:45:59.763Z,94.40
2017-05-29T01:48:28.830Z,94.30
2017-05-29T01:50:57.914Z,94.40
2017-05-29T01:53:26.980Z,94.30
2017-05-29T01:55:56.027Z,94.20
2017-05-29T01:58:25.109Z,94.20
2017-05-29T02:00:54.177Z,94.20
2017-05-29T02:03:23.226Z,94.20
2017-05-29T02:05:52.307Z,94.20
2017-05-29T02:08:21.387Z,94.30
2017-05-29T02:10:50.437Z,94.20
2017-05-29T02:13:19.531Z,94.30
2017-05-29T02:15:48.604Z,94.50
2017-05-29T02:18:17.677Z,94.50
2017-05-29T02:20:46.760Z,94.60
2017-05-29T02:23:15.818Z,94.50
2017-05-29T02:25:44.865Z,94.40
2017-05-29T02:28:14.255Z,94.20
2017-05-29T02:30:43.311Z,94.10
2017-05-29T02:33:12.382Z,93.90
2017-05-29T02:35:41.468Z,93.90
2017-05-29T02:38:10.522Z,93.80
2017-05-29T02:40:39.587Z,93.80
2017-05-29T02:43:08.658Z,93.80
2017-05-29T02:45:37.718Z,93.90
2017-05-29T02:48:06.783Z,93.80
2017-05-29T02:50:35.877Z,93.90
2017-05-29T02:53:04.953Z,93.90
2017-05-29T02:55:34.026Z,93.90
2017-05-29T02:58:03.102Z,93.60
2017-05-29T03:00:32.171Z,93.30
2017-05-29T03:03:01.246Z,93.00
2017-05-29T03:05:30.597Z,92.80
2017-05-29T03:07:59.650Z,92.80
2017-05-29T03:10:28.712Z,93.00
2017-05-29T03:12:57.819Z,92.70
2017-05-29T03:15:26.080Z,93.00
2017-05-29T03:17:55.145Z,92.30
2017-05-29T03:20:24.234Z,92.30
2017-05-29T03:22:53.288Z,92.40
2017-05-29T03:25:22.348Z,92.30
2017-05-29T03:27:51.407Z,92.20
2017-05-29T03:30:20.464Z,92.10
2017-05-29T03:32:49.524Z,92.30
2017-05-29T03:35:18.600Z,92.30
2017-05-29T03:37:47.649Z,92.20
2017-05-29T03:40:16.707Z,92.10
2017-05-29T03:42:45.769Z,92.10
2017-05-29T03:45:14.831Z,92.20
2017-05-29T03:47:43.890Z,92.20
2017-05-29T03:50:12.987Z,92.20
2017-05-29T03:52:42.050Z,92.00
2017-05-29T03:55:11.104Z,91.90
2017-05-29T03:57:40.175Z,91.80
2017-05-29T04:00:09.227Z,91.80
2017-05-29T04:02:38.375Z,91.60
2017-05-29T04:05:07.433Z,91.40
2017-05-29T04:07:36.495Z,91.30
2017-05-29T04:10:05.542Z,91.20
2017-05-29T04:12:35.006Z,90.90
2017-05-29T04:15:04.057Z,90.70
2017-05-29T04:17:33.105Z,90.40
2017-05-29T04:20:02.160Z,90.20
2017-05-29T04:22:31.243Z,89.90
2017-05-29T04:25:00.285Z,89.00
2017-05-29T04:27:29.435Z,88.80
2017-05-29T04:29:58.500Z,88.10
2017-05-29T04:32:31.670Z,88.00
2017-05-29T04:35:00.687Z,87.70
2017-05-29T04:37:29.746Z,87.90
2017-05-29T04:39:58.817Z,87.90
2017-05-29T04:42:28.174Z,87.50
2017-05-29T04:44:57.239Z,87.30
2017-05-29T04:47:26.319Z,87.00
2017-05-29T04:49:55.435Z,86.70
2017-05-29T04:52:24.478Z,86.80
2017-05-29T04:54:53.536Z,86.40
2017-05-29T04:57:22.614Z,86.10
2017-05-29T04:59:51.649Z,86.20
2017-05-29T05:02:20.715Z,86.00
2017-05-29T05:04:49.784Z,86.10
2017-05-29T05:07:19.726Z,86.00
2017-05-29T05:09:49.573Z,85.40
2017-05-29T05:12:18.632Z,85.40
2017-05-29T05:14:47.811Z,85.20
2017-05-29T05:17:16.892Z,84.00
2017-05-29T05:19:45.947Z,83.60
2017-05-29T05:22:15.012Z,83.20
2017-05-29T05:24:44.081Z,83.10
2017-05-29T05:27:13.129Z,83.00
2017-05-29T05:29:42.179Z,82.70
2017-05-29T05:32:11.306Z,82.40
2017-05-29T05:34:40.344Z,82.50
2017-05-29T05:37:09.394Z,82.40
2017-05-29T05:39:38.533Z,81.70
2017-05-29T05:42:07.525Z,80.70
2017-05-29T05:44:36.566Z,81.10
2017-05-29T05:47:05.643Z,80.70
2017-05-29T05:49:34.699Z,80.20
2017-05-29T05:52:03.740Z,79.70
2017-05-29T05:54:32.806Z,78.80
2017-05-29T05:57:01.849Z,79.00
2017-05-29T05:59:30.894Z,79.10
2017-05-29T06:01:59.958Z,78.70
2017-05-29T06:04:29.002Z,78.10
2017-05-29T06:06:58.116Z,78.00
2017-05-29T06:09:28.898Z,78.10
2017-05-29T06:11:57.988Z,77.40
2017-05-29T06:14:27.041Z,77.80
2017-05-29T06:16:56.124Z,77.60
2017-05-29T06:19:25.185Z,77.40
2017-05-29T06:21:54.229Z,77.60
2017-05-29T06:24:23.326Z,76.60
2017-05-29T06:26:51.620Z,76.60
2017-05-29T06:29:20.649Z,78.10
2017-05-29T06:31:49.721Z,78.50
2017-05-29T06:34:18.763Z,79.40
2017-05-29T06:36:47.827Z,80.20
2017-05-29T06:39:16.887Z,80.70
2017-05-29T06:41:45.965Z,80.10
2017-05-29T06:44:14.249Z,80.10
2017-05-29T06:46:43.316Z,79.80
2017-05-29T06:49:12.431Z,78.00
2017-05-29T06:51:41.492Z,77.30
2017-05-29T06:54:10.567Z,77.30
2017-05-29T06:56:39.600Z,76.20
2017-05-29T06:59:07.899Z,75.70
2017-05-29T07:01:36.981Z,76.40
2017-05-29T07:04:06.079Z,75.50
2017-05-29T07:06:35.127Z,74.80
2017-05-29T07:09:04.202Z,75.20
2017-05-29T07:11:33.280Z,74.30
2017-05-29T07:14:02.331Z,75.00
2017-05-29T07:16:31.412Z,74.30
2017-05-29T07:19:00.509Z,74.10
2017-05-29T07:21:29.533Z,74.70
2017-05-29T07:23:58.601Z,73.90
2017-05-29T07:26:27.633Z,74.60
2017-05-29T07:28:56.699Z,74.60
2017-05-29T07:31:25.776Z,73.50
2017-05-29T07:33:54.814Z,73.00
2017-05-29T07:36:23.874Z,72.40
2017-05-29T07:38:52.927Z,71.80
2017-05-29T07:41:21.975Z,71.10
2017-05-29T07:43:51.026Z,71.10
2017-05-29T07:46:19.317Z,71.10
2017-05-29T07:48:48.365Z,70.90
2017-05-29T07:51:17.431Z,71.10
2017-05-29T07:53:46.502Z,70.40
2017-05-29T07:56:15.547Z,70.30
2017-05-29T07:58:44.603Z,68.90
2017-05-29T08:01:13.681Z,68.00
2017-05-29T08:03:42.728Z,68.50
2017-05-29T08:06:11.783Z,68.40
2017-05-29T08:08:40.868Z,68.00
2017-05-29T08:11:09.941Z,67.10
2017-05-29T08:13:38.999Z,67.60
2017-05-29T08:16:08.078Z,66.10
2017-05-29T08:18:37.875Z,66.30
2017-05-29T08:21:06.948Z,66.30
2017-05-29T08:23:36.405Z,65.70
2017-05-29T08:26:05.444Z,65.20
2017-05-29T08:28:34.483Z,63.60
2017-05-29T08:31:03.552Z,64.10
2017-05-29T08:33:32.595Z,64.90
2017-05-29T08:36:01.634Z,64.50
2017-05-29T08:38:30.713Z,64.50
2017-05-29T08:40:59.778Z,64.80
2017-05-29T08:43:30.518Z,66.20
2017-05-29T08:45:59.624Z,65.30
2017-05-29T08:48:28.662Z,65.20
2017-05-29T08:50:57.747Z,65.10
2017-05-29T08:53:26.799Z,63.60
2017-05-29T08:55:55.842Z,63.10
2017-05-29T08:58:24.976Z,63.30
2017-05-29T09:00:53.945Z,61.10
2017-05-29T09:03:22.999Z,61.70
2017-05-29T09:05:52.069Z,60.90
2017-05-29T09:08:21.145Z,61.30
2017-05-29T09:10:50.199Z,61.30
2017-05-29T09:13:19.262Z,60.40
2017-05-29T09:15:48.310Z,59.20
2017-05-29T09:18:17.412Z,59.20
2017-05-29T09:20:45.801Z,59.20
2017-05-29T09:23:14.858Z,57.50
2017-05-29T09:25:43.888Z,56.60
2017-05-29T09:28:12.953Z,56.10
2017-05-29T09:30:42.033Z,54.20
2017-05-29T09:33:11.083Z,54.90
2017-05-29T09:35:40.159Z,53.50
2017-05-29T09:38:09.216Z,53.10
2017-05-29T09:40:38.253Z,52.40
2017-05-29T09:43:07.317Z,53.10
2017-05-29T09:45:36.363Z,51.40
2017-05-29T09:48:05.402Z,50.30
2017-05-29T09:50:34.480Z,50.80
2017-05-29T09:53:03.527Z,51.00
2017-05-29T09:55:32.583Z,51.60
2017-05-29T09:58:01.642Z,52.00
2017-05-29T10:00:30.681Z,50.80
2017-05-29T10:02:59.740Z,51.90
2017-05-29T10:05:28.794Z,51.20
2017-05-29T10:07:57.855Z,51.30
2017-05-29T10:10:26.914Z,50.60
2017-05-29T10:12:56.694Z,51.20
2017-05-29T10:15:25.739Z,51.00
2017-05-29T10:17:54.776Z,50.60
2017-05-29T10:20:23.845Z,48.90
2017-05-29T10:22:52.944Z,48.50
2017-05-29T10:25:21.985Z,48.40
2017-05-29T10:27:51.053Z,48.00
2017-05-29T10:30:20.106Z,48.40
2017-05-29T10:32:49.193Z,47.70
2017-05-29T10:35:18.248Z,47.70
2017-05-29T10:37:47.289Z,48.50
2017-05-29T10:40:16.336Z,47.50
2017-05-29T10:42:45.407Z,47.60
2017-05-29T10:45:14.459Z,47.60
2017-05-29T10:47:43.515Z,47.40
2017-05-29T10:50:12.591Z,46.80
2017-05-29T10:52:41.641Z,47.30
2017-05-29T10:55:10.701Z,47.00
2017-05-29T10:57:39.753Z,46.90
2017-05-29T11:00:08.813Z,45.60
2017-05-29T11:02:37.883Z,45.10
2017-05-29T11:05:06.948Z,45.90
2017-05-29T11:07:36.015Z,44.50
2017-05-29T11:10:05.069Z,44.50
2017-05-29T11:12:34.154Z,45.10
2017-05-29T11:15:03.225Z,45.10
2017-05-29T11:17:32.273Z,45.00
2017-05-29T11:20:01.339Z,44.80
2017-05-29T11:22:30.391Z,45.50
2017-05-29T11:24:59.444Z,45.80
2017-05-29T11:27:28.511Z,46.20
2017-05-29T11:29:57.558Z,46.00
2017-05-29T11:32:26.621Z,46.10
2017-05-29T11:34:55.687Z,44.90
2017-05-29T11:37:25.918Z,43.90
2017-05-29T11:39:54.989Z,43.80
2017-05-29T11:42:24.032Z,43.90
2017-05-29T11:44:53.091Z,45.00
2017-05-29T11:47:23.080Z,45.10
2017-05-29T11:49:52.169Z,45.40
2017-05-29T11:52:21.235Z,44.30
2017-05-29T11:54:50.295Z,43.30
2017-05-29T11:57:19.329Z,44.00
2017-05-29T11:59:48.433Z,43.30
2017-05-29T12:02:18.513Z,43.30
2017-05-29T12:04:47.595Z,42.90
2017-05-29T12:07:16.668Z,42.70
2017-05-29T12:09:45.718Z,42.20
2017-05-29T12:12:14.774Z,42.80
2017-05-29T12:14:43.823Z,43.60
2017-05-29T12:17:12.888Z,43.50
2017-05-29T12:19:41.940Z,44.70
2017-05-29T12:22:10.995Z,44.20
2017-05-29T12:24:40.067Z,43.90
2017-05-29T12:27:09.116Z,43.90
2017-05-29T12:29:38.169Z,43.30
2017-05-29T12:32:07.221Z,42.90
2017-05-29T12:34:36.258Z,41.70
2017-05-29T12:37:05.329Z,42.00
2017-05-29T12:39:34.394Z,42.00
2017-05-29T12:42:03.451Z,41.30
2017-05-29T12:44:32.506Z,41.80
2017-05-29T12:47:01.580Z,42.00
2017-05-29T12:49:30.651Z,41.70
2017-05-29T12:51:59.715Z,39.80
2017-05-29T12:54:28.788Z,39.20
2017-05-29T12:56:57.820Z,40.40
2017-05-29T12:59:26.877Z,39.70
2017-05-29T13:01:55.933Z,39.00
2017-05-29T13:04:25.446Z,38.70
2017-05-29T13:06:54.499Z,39.40
2017-05-29T13:09:23.581Z,38.20
2017-05-29T13:11:51.868Z,38.20
2017-05-29T13:14:20.921Z,37.90
2017-05-29T13:16:50.016Z,38.40
2017-05-29T13:19:19.029Z,38.00
2017-05-29T13:21:48.070Z,35.90
2017-05-29T13:24:17.143Z,36.30
2017-05-29T13:26:46.192Z,36.20
2017-05-29T13:29:15.245Z,34.70
2017-05-29T13:31:44.312Z,35.40
2017-05-29T13:34:13.376Z,34.20
2017-05-29T13:36:42.418Z,33.30
2017-05-29T13:39:11.473Z,33.80
2017-05-29T13:41:40.549Z,33.10
2017-05-29T13:44:09.633Z,33.20
2017-05-29T13:46:38.671Z,34.30
2017-05-29T13:49:07.732Z,34.20
2017-05-29T13:51:36.786Z,33.60
2017-05-29T13:54:05.857Z,35.10
2017-05-29T13:56:34.906Z,35.40
2017-05-29T13:59:03.983Z,35.30
2017-05-29T14:01:33.044Z,35.00
2017-05-29T14:04:02.318Z,35.40
2017-05-29T14:06:31.375Z,34.70
2017-05-29T14:09:00.442Z,34.40
2017-05-29T14:11:29.495Z,35.00
2017-05-29T14:13:58.534Z,34.50
2017-05-29T14:16:27.672Z,33.80
2017-05-29T14:18:56.769Z,34.30
2017-05-29T14:21:25.829Z,34.00
2017-05-29T14:23:54.889Z,32.90
2017-05-29T14:26:23.944Z,32.90
2017-05-29T14:28:52.986Z,32.90
2017-05-29T14:31:22.040Z,32.20
2017-05-29T14:33:51.099Z,33.00
2017-05-29T14:36:20.160Z,34.80
2017-05-29T14:38:48.462Z,34.20
2017-05-29T14:41:17.527Z,33.10
2017-05-29T14:43:46.583Z,32.40
2017-05-29T14:46:15.668Z,33.20
2017-05-29T14:48:44.744Z,31.00
2017-05-29T14:51:13.791Z,30.70
2017-05-29T14:53:42.938Z,31.20
2017-05-29T14:56:12.000Z,30.20
2017-05-29T14:58:41.161Z,31.20
2017-05-29T15:01:10.245Z,31.20
2017-05-29T15:03:39.287Z,31.60
2017-05-29T15:06:08.360Z,32.40
2017-05-29T15:08:37.421Z,31.50
2017-05-29T15:11:06.477Z,31.50
2017-05-29T15:13:35.523Z,32.50
2017-05-29T15:16:04.584Z,31.40
2017-05-29T15:18:33.675Z,31.70
2017-05-29T15:21:02.717Z,31.20
2017-05-29T15:23:32.167Z,32.70
2017-05-29T15:26:01.223Z,31.50
2017-05-29T15:28:30.257Z,32.50
2017-05-29T15:30:59.475Z,32.70
2017-05-29T15:33:28.499Z,31.40
2017-05-29T15:35:57.537Z,32.40
2017-05-29T15:38:26.686Z,32.70
2017-05-29T15:40:55.728Z,31.50
2017-05-29T15:43:24.829Z,31.20
2017-05-29T15:45:53.912Z,31.00
2017-05-29T15:48:22.943Z,31.60
2017-05-29T15:50:51.990Z,30.60
2017-05-29T15:53:21.064Z,31.00
2017-05-29T15:55:50.098Z,31.70
2017-05-29T15:58:19.173Z,32.10
2017-05-29T16:00:48.293Z,32.10
2017-05-29T16:03:17.429Z,31.60
2017-05-29T16:05:46.489Z,31.90
2017-05-29T16:08:15.666Z,31.40
2017-05-29T16:10:44.723Z,31.60
2017-05-29T16:13:13.766Z,31.70
2017-05-29T16:15:42.065Z,31.70
2017-05-29T16:18:11.095Z,32.60
2017-05-29T16:20:40.141Z,32.80
2017-05-29T16:23:09.212Z,32.70
2017-05-29T16:25:38.251Z,32.30
2017-05-29T16:28:07.323Z,33.00
2017-05-29T16:30:36.377Z,33.90
2017-05-29T16:33:05.423Z,34.30
2017-05-29T16:35:34.479Z,34.30
2017-05-29T16:38:03.548Z,33.80
2017-05-29T16:40:32.600Z,34.30
2017-05-29T16:43:01.642Z,33.60
2017-05-29T16:45:30.728Z,33.80
2017-05-29T16:47:59.828Z,33.70
2017-05-29T16:50:28.862Z,33.40
2017-05-29T16:52:58.665Z,33.80
2017-05-29T16:55:27.804Z,33.00
2017-05-29T16:57:56.863Z,33.00
2017-05-29T17:00:25.938Z,33.30
2017-05-29T17:02:55.007Z,33.40
2017-05-29T17:05:24.093Z,33.90
2017-05-29T17:07:53.143Z,34.50
2017-05-29T17:10:22.212Z,34.90
2017-05-29T17:12:51.278Z,35.50
2017-05-29T17:15:20.334Z,36.40
2017-05-29T17:17:49.402Z,37.00
2017-05-29T17:20:18.452Z,37.20
2017-05-29T17:22:47.530Z,37.70
2017-05-29T17:25:16.595Z,38.50
2017-05-29T17:27:45.626Z,38.60
2017-05-29T17:30:16.562Z,39.10
2017-05-29T17:32:45.651Z,39.40
2017-05-29T17:35:14.724Z,39.60
2017-05-29T17:37:43.778Z,40.10
2017-05-29T17:40:12.880Z,40.30
2017-05-29T17:42:41.955Z,40.40
2017-05-29T17:45:11.032Z,40.70
2017-05-29T17:47:40.100Z,41.10
2017-05-29T17:50:09.151Z,41.30
2017-05-29T17:52:38.819Z,41.30
2017-05-29T17:55:07.884Z,41.80
2017-05-29T17:57:36.944Z,42.10
2017-05-29T18:00:07.369Z,42.30
2017-05-29T18:02:35.650Z,42.30
2017-05-29T18:05:04.728Z,42.60
2017-05-29T18:07:33.794Z,42.50
2017-05-29T18:10:02.856Z,42.70
2017-05-29T18:12:32.595Z,42.80
2017-05-29T18:15:01.636Z,43.00
2017-05-29T18:17:30.706Z,43.00
2017-05-29T18:20:00.001Z,43.20
2017-05-29T18:22:29.354Z,43.50
2017-05-29T18:24:58.511Z,44.20
2017-05-29T18:27:27.569Z,44.00
2017-05-29T18:29:56.751Z,44.90
2017-05-29T18:32:25.910Z,46.30
2017-05-29T18:34:55.234Z,47.60
2017-05-29T18:37:24.570Z,49.00
2017-05-29T18:39:53.658Z,50.00
2017-05-29T18:42:22.730Z,50.60
2017-05-29T18:44:51.940Z,51.50
2017-05-29T18:47:21.237Z,52.70
2017-05-29T18:49:50.402Z,53.50
2017-05-29T18:52:19.783Z,54.30
2017-05-29T18:54:49.375Z,55.50
2017-05-29T18:57:18.898Z,55.80
2017-05-29T18:59:48.499Z,56.30
2017-05-29T19:02:18.336Z,56.90
2017-05-29T19:04:47.994Z,57.20
2017-05-29T19:07:17.865Z,57.70
2017-05-29T19:09:47.771Z,57.90
2017-05-29T19:12:17.628Z,58.00
2017-05-29T19:14:47.709Z,58.30
2017-05-29T19:17:17.643Z,58.40
2017-05-29T19:19:47.657Z,58.60
2017-05-29T19:22:17.757Z,58.80
2017-05-29T19:24:47.990Z,58.80
2017-05-29T19:27:18.737Z,58.80
2017-05-29T19:29:50.207Z,58.80
2017-05-29T19:32:19.597Z,59.00
2017-05-29T19:34:49.441Z,58.70
2017-05-29T19:37:19.130Z,59.70
2017-05-29T19:39:48.487Z,59.60
2017-05-29T19:42:17.594Z,60.20
2017-05-29T19:44:46.686Z,60.70
2017-05-29T19:47:15.852Z,59.60
2017-05-29T19:49:44.983Z,60.90
2017-05-29T19:52:14.190Z,61.60
2017-05-29T19:54:43.310Z,61.80
2017-05-29T19:57:12.579Z,62.00
2017-05-29T19:59:42.727Z,62.20
2017-05-29T20:02:11.921Z,62.80
2017-05-29T20:04:41.653Z,63.30
2017-05-29T20:07:11.995Z,63.90
2017-05-29T20:09:42.172Z,64.20
2017-05-29T20:12:14.065Z,65.10
2017-05-29T20:14:43.128Z,65.70
2017-05-29T20:17:12.248Z,66.60
2017-05-29T20:19:41.279Z,67.20
2017-05-29T20:22:10.347Z,67.30
2017-05-29T20:24:39.401Z,67.70
2017-05-29T20:27:08.497Z,68.00
2017-05-29T20:29:37.557Z,68.20
2017-05-29T20:32:06.679Z,68.70
2017-05-29T20:34:35.848Z,69.20
2017-05-29T20:37:04.908Z,70.20
2017-05-29T20:39:34.000Z,71.10
2017-05-29T20:42:03.089Z,71.50
2017-05-29T20:44:32.159Z,71.70
2017-05-29T20:47:01.321Z,72.20
2017-05-29T20:49:30.382Z,72.80
2017-05-29T20:51:59.493Z,73.10
2017-05-29T20:54:28.571Z,73.50
2017-05-29T20:56:57.646Z,74.10
2017-05-29T20:59:26.724Z,74.60
2017-05-29T21:01:55.798Z,75.00
2017-05-29T21:04:24.870Z,75.50
2017-05-29T21:06:53.921Z,75.80
2017-05-29T21:09:23.008Z,75.70
2017-05-29T21:11:52.095Z,76.40
2017-05-29T21:14:21.165Z,76.70
2017-05-29T21:16:50.252Z,76.40
2017-05-29T21:19:19.307Z,76.50
2017-05-29T21:21:48.359Z,77.20
2017-05-29T21:24:17.427Z,76.70
2017-05-29T21:26:46.495Z,76.90
2017-05-29T21:29:15.603Z,77.10
2017-05-29T21:31:44.709Z,77.10
2017-05-29T21:34:14.426Z,77.00
2017-05-29T21:36:43.551Z,77.00
2017-05-29T21:39:13.384Z,77.30
2017-05-29T21:41:42.440Z,77.40
2017-05-29T21:44:11.558Z,78.00
2017-05-29T21:46:40.859Z,78.60
2017-05-29T21:49:10.088Z,79.00
2017-05-29T21:51:39.343Z,79.30
2017-05-29T21:54:08.430Z,79.90
2017-05-29T21:56:37.544Z,80.60
2017-05-29T21:59:06.611Z,81.30
2017-05-29T22:01:35.777Z,82.00
2017-05-29T22:04:04.813Z,82.40
2017-05-29T22:06:33.876Z,82.90
2017-05-29T22:09:02.945Z,83.40
2017-05-29T22:11:31.993Z,84.10
2017-05-29T22:14:01.066Z,84.60
2017-05-29T22:16:30.163Z,85.50
2017-05-29T22:18:59.244Z,85.90
2017-05-29T22:21:28.353Z,86.40
2017-05-29T22:23:57.410Z,86.70
2017-05-29T22:26:26.494Z,86.90
2017-05-29T22:28:55.557Z,87.30
2017-05-29T22:31:24.642Z,87.60
2017-05-29T22:33:53.729Z,87.50
2017-05-29T22:36:22.824Z,87.50
2017-05-29T22:38:51.913Z,87.50
2017-05-29T22:41:20.987Z,87.30
2017-05-29T22:43:50.059Z,87.50
2017-05-29T22:46:19.140Z,87.60
2017-05-29T22:48:48.206Z,87.60
2017-05-29T22:51:16.523Z,87.60
2017-05-29T22:53:45.612Z,88.20
2017-05-29T22:56:14.689Z,88.20
2017-05-29T22:58:43.737Z,88.30
2017-05-29T23:01:12.828Z,88.70
2017-05-29T23:03:41.895Z,88.00
2017-05-29T23:06:10.960Z,87.70
2017-05-29T23:08:40.109Z,88.10
2017-05-29T23:11:09.211Z,88.10
2017-05-29T23:13:38.301Z,88.10
2017-05-29T23:16:07.367Z,88.10
2017-05-29T23:18:36.420Z,88.30
2017-05-29T23:21:05.503Z,88.30
2017-05-29T23:23:34.595Z,88.20
2017-05-29T23:26:03.699Z,87.80
2017-05-29T23:28:32.821Z,87.00
2017-05-29T23:31:01.870Z,86.80
2017-05-29T23:33:30.997Z,86.50
2017-05-29T23:36:00.208Z,86.80
2017-05-29T23:38:29.287Z,86.90
2017-05-29T23:40:58.382Z,87.40
2017-05-29T23:43:27.914Z,87.50
2017-05-29T23:45:56.970Z,88.00
2017-05-29T23:48:26.046Z,88.40
2017-05-29T23:50:55.123Z,88.60
2017-05-29T23:53:24.199Z,88.90
2017-05-29T23:55:53.247Z,88.90
2017-05-29T23:58:22.327Z,89.20
